sensor_id;sensor_type;location;lat;lon;timestamp;temperature;humidity
17348;DHT22;8791;50.876;4.342;2022-08-19T00:01:28;22.00;99.90
17348;DHT22;8791;50.876;4.342;2022-08-19T00:03:56;22.00;99.90
17348;DHT22;8791;50.876;4.342;2022-08-19T00:06:23;21.80;99.90
17348;DHT22;8791;50.876;4.342;2022-08-19T00:08:51;21.80;99.90
17348;DHT22;8791;50.876;4.342;2022-08-19T00:11:18;21.70;99.90
17348;DHT22;8791;50.876;4.342;2022-08-19T00:13:46;21.60;99.90
17348;DHT22;8791;50.876;4.342;2022-08-19T00:16:14;21.70;99.90
17348;DHT22;8791;50.876;4.342;2022-08-19T00:18:41;21.60;99.90
17348;DHT22;8791;50.876;4.342;2022-08-19T00:21:08;21.50;99.90
17348;DHT22;8791;50.876;4.342;2022-08-19T00:23:35;21.60;99.90
17348;DHT22;8791;50.876;4.342;2022-08-19T00:26:04;21.60;99.90
17348;DHT22;8791;50.876;4.342;2022-08-19T00:28:32;21.60;99.90
17348;DHT22;8791;50.876;4.342;2022-08-19T00:31:01;21.60;99.90
17348;DHT22;8791;50.876;4.342;2022-08-19T00:33:28;21.60;99.90
17348;DHT22;8791;50.876;4.342;2022-08-19T00:35:57;21.60;99.90
17348;DHT22;8791;50.876;4.342;2022-08-19T00:38:24;21.50;99.90
17348;DHT22;8791;50.876;4.342;2022-08-19T00:40:52;21.40;99.90
17348;DHT22;8791;50.876;4.342;2022-08-19T00:43:22;21.40;99.90
17348;DHT22;8791;50.876;4.342;2022-08-19T00:45:50;21.40;99.90
17348;DHT22;8791;50.876;4.342;2022-08-19T00:48:18;21.40;99.90
17348;DHT22;8791;50.876;4.342;2022-08-19T00:50:45;21.40;99.90
17348;DHT22;8791;50.876;4.342;2022-08-19T00:53:16;21.40;99.90
17348;DHT22;8791;50.876;4.342;2022-08-19T00:55:46;21.40;99.90
17348;DHT22;8791;50.876;4.342;2022-08-19T00:58:17;21.40;99.90
17348;DHT22;8791;50.876;4.342;2022-08-19T01:00:47;21.40;99.90
17348;DHT22;8791;50.876;4.342;2022-08-19T01:03:17;21.40;99.90
17348;DHT22;8791;50.876;4.342;2022-08-19T01:05:45;21.40;99.90
17348;DHT22;8791;50.876;4.342;2022-08-19T01:08:15;21.40;99.90
17348;DHT22;8791;50.876;4.342;2022-08-19T01:10:46;21.40;99.90
17348;DHT22;8791;50.876;4.342;2022-08-19T01:13:15;21.50;99.90
17348;DHT22;8791;50.876;4.342;2022-08-19T01:15:44;21.50;99.90
17348;DHT22;8791;50.876;4.342;2022-08-19T01:18:14;21.50;99.90
17348;DHT22;8791;50.876;4.342;2022-08-19T01:20:43;21.50;99.90
17348;DHT22;8791;50.876;4.342;2022-08-19T01:23:12;21.50;99.90
17348;DHT22;8791;50.876;4.342;2022-08-19T01:25:44;21.40;99.90
17348;DHT22;8791;50.876;4.342;2022-08-19T01:28:18;21.30;99.90
17348;DHT22;8791;50.876;4.342;2022-08-19T01:30:46;21.30;99.90
17348;DHT22;8791;50.876;4.342;2022-08-19T01:33:13;21.20;99.90
17348;DHT22;8791;50.876;4.342;2022-08-19T01:35:40;21.20;99.90
17348;DHT22;8791;50.876;4.342;2022-08-19T01:38:18;21.10;99.90
17348;DHT22;8791;50.876;4.342;2022-08-19T01:40:46;21.00;99.90
17348;DHT22;8791;50.876;4.342;2022-08-19T01:43:13;21.00;99.90
17348;DHT22;8791;50.876;4.342;2022-08-19T01:45:40;20.80;99.90
17348;DHT22;8791;50.876;4.342;2022-08-19T01:48:08;20.80;99.90
17348;DHT22;8791;50.876;4.342;2022-08-19T01:50:35;20.80;99.90
17348;DHT22;8791;50.876;4.342;2022-08-19T01:53:04;20.80;99.90
17348;DHT22;8791;50.876;4.342;2022-08-19T01:55:32;20.80;99.90
17348;DHT22;8791;50.876;4.342;2022-08-19T01:58:02;20.70;99.90
17348;DHT22;8791;50.876;4.342;2022-08-19T02:00:32;20.70;99.90
17348;DHT22;8791;50.876;4.342;2022-08-19T02:02:59;20.70;99.90
17348;DHT22;8791;50.876;4.342;2022-08-19T02:05:27;20.70;99.90
17348;DHT22;8791;50.876;4.342;2022-08-19T02:07:55;20.70;99.90
17348;DHT22;8791;50.876;4.342;2022-08-19T02:10:22;20.60;99.90
17348;DHT22;8791;50.876;4.342;2022-08-19T02:12:49;20.50;99.90
17348;DHT22;8791;50.876;4.342;2022-08-19T02:15:18;20.50;99.90
17348;DHT22;8791;50.876;4.342;2022-08-19T02:17:46;20.50;99.90
17348;DHT22;8791;50.876;4.342;2022-08-19T02:20:14;20.40;99.90
17348;DHT22;8791;50.876;4.342;2022-08-19T02:22:41;20.30;99.90
17348;DHT22;8791;50.876;4.342;2022-08-19T02:25:09;20.40;99.90
17348;DHT22;8791;50.876;4.342;2022-08-19T02:27:36;20.30;99.90
17348;DHT22;8791;50.876;4.342;2022-08-19T02:30:05;20.30;99.90
17348;DHT22;8791;50.876;4.342;2022-08-19T02:32:33;20.20;99.90
17348;DHT22;8791;50.876;4.342;2022-08-19T02:35:00;20.10;99.90
17348;DHT22;8791;50.876;4.342;2022-08-19T02:37:28;20.10;99.90
17348;DHT22;8791;50.876;4.342;2022-08-19T02:40:13;20.10;99.90
17348;DHT22;8791;50.876;4.342;2022-08-19T02:42:40;20.10;99.90
17348;DHT22;8791;50.876;4.342;2022-08-19T02:45:08;20.10;99.90
17348;DHT22;8791;50.876;4.342;2022-08-19T02:47:37;20.10;99.90
17348;DHT22;8791;50.876;4.342;2022-08-19T02:50:11;20.00;99.90
17348;DHT22;8791;50.876;4.342;2022-08-19T02:52:39;20.00;99.90
17348;DHT22;8791;50.876;4.342;2022-08-19T02:55:07;20.10;99.90
17348;DHT22;8791;50.876;4.342;2022-08-19T02:57:34;20.10;99.90
17348;DHT22;8791;50.876;4.342;2022-08-19T03:00:04;20.10;99.90
17348;DHT22;8791;50.876;4.342;2022-08-19T03:02:31;20.10;99.90
17348;DHT22;8791;50.876;4.342;2022-08-19T03:04:59;19.90;99.90
17348;DHT22;8791;50.876;4.342;2022-08-19T03:07:27;19.80;99.90
17348;DHT22;8791;50.876;4.342;2022-08-19T03:09:54;19.60;99.90
17348;DHT22;8791;50.876;4.342;2022-08-19T03:12:20;19.60;99.90
17348;DHT22;8791;50.876;4.342;2022-08-19T03:14:47;19.60;99.90
17348;DHT22;8791;50.876;4.342;2022-08-19T03:17:14;19.70;99.90
17348;DHT22;8791;50.876;4.342;2022-08-19T03:19:41;19.70;99.90
17348;DHT22;8791;50.876;4.342;2022-08-19T03:22:10;19.80;99.90
17348;DHT22;8791;50.876;4.342;2022-08-19T03:24:37;19.70;99.90
17348;DHT22;8791;50.876;4.342;2022-08-19T03:27:03;19.60;99.90
17348;DHT22;8791;50.876;4.342;2022-08-19T03:29:31;19.60;99.90
17348;DHT22;8791;50.876;4.342;2022-08-19T03:31:59;19.50;99.90
17348;DHT22;8791;50.876;4.342;2022-08-19T03:34:29;19.40;99.90
17348;DHT22;8791;50.876;4.342;2022-08-19T03:36:58;19.40;99.90
17348;DHT22;8791;50.876;4.342;2022-08-19T03:39:27;19.50;99.90
17348;DHT22;8791;50.876;4.342;2022-08-19T03:41:55;19.50;99.90
17348;DHT22;8791;50.876;4.342;2022-08-19T03:44:23;19.40;99.90
17348;DHT22;8791;50.876;4.342;2022-08-19T03:46:52;19.40;99.90
17348;DHT22;8791;50.876;4.342;2022-08-19T03:49:21;19.40;99.90
17348;DHT22;8791;50.876;4.342;2022-08-19T03:51:49;19.40;99.90
17348;DHT22;8791;50.876;4.342;2022-08-19T03:54:19;19.20;99.90
17348;DHT22;8791;50.876;4.342;2022-08-19T03:56:51;19.30;99.90
17348;DHT22;8791;50.876;4.342;2022-08-19T03:59:21;19.20;99.90
17348;DHT22;8791;50.876;4.342;2022-08-19T04:01:50;19.20;99.90
17348;DHT22;8791;50.876;4.342;2022-08-19T04:04:17;19.30;99.90
17348;DHT22;8791;50.876;4.342;2022-08-19T04:06:44;19.20;99.90
17348;DHT22;8791;50.876;4.342;2022-08-19T04:09:12;19.10;99.90
17348;DHT22;8791;50.876;4.342;2022-08-19T04:11:42;19.10;99.90
17348;DHT22;8791;50.876;4.342;2022-08-19T04:14:12;19.00;99.90
17348;DHT22;8791;50.876;4.342;2022-08-19T04:16:39;19.00;99.90
17348;DHT22;8791;50.876;4.342;2022-08-19T04:19:07;18.90;99.90
17348;DHT22;8791;50.876;4.342;2022-08-19T04:21:34;18.80;99.90
17348;DHT22;8791;50.876;4.342;2022-08-19T04:24:02;18.80;99.90
17348;DHT22;8791;50.876;4.342;2022-08-19T04:26:31;18.80;99.90
17348;DHT22;8791;50.876;4.342;2022-08-19T04:28:59;19.00;99.90
17348;DHT22;8791;50.876;4.342;2022-08-19T04:31:30;18.90;99.90
17348;DHT22;8791;50.876;4.342;2022-08-19T04:34:01;18.90;99.90
17348;DHT22;8791;50.876;4.342;2022-08-19T04:36:30;18.90;99.90
17348;DHT22;8791;50.876;4.342;2022-08-19T04:39:00;18.90;99.90
17348;DHT22;8791;50.876;4.342;2022-08-19T04:41:27;18.80;99.90
17348;DHT22;8791;50.876;4.342;2022-08-19T04:44:14;18.70;99.90
17348;DHT22;8791;50.876;4.342;2022-08-19T04:46:45;18.80;99.90
17348;DHT22;8791;50.876;4.342;2022-08-19T04:49:14;18.80;99.90
17348;DHT22;8791;50.876;4.342;2022-08-19T04:51:43;18.60;99.90
17348;DHT22;8791;50.876;4.342;2022-08-19T04:54:11;18.70;99.90
17348;DHT22;8791;50.876;4.342;2022-08-19T04:56:39;18.60;99.90
17348;DHT22;8791;50.876;4.342;2022-08-19T04:59:07;18.50;99.90
17348;DHT22;8791;50.876;4.342;2022-08-19T05:01:36;18.50;99.90
17348;DHT22;8791;50.876;4.342;2022-08-19T05:04:06;18.40;99.90
17348;DHT22;8791;50.876;4.342;2022-08-19T05:06:33;18.40;99.90
17348;DHT22;8791;50.876;4.342;2022-08-19T05:09:03;18.50;99.90
17348;DHT22;8791;50.876;4.342;2022-08-19T05:11:33;18.50;99.90
17348;DHT22;8791;50.876;4.342;2022-08-19T05:14:01;18.60;99.90
17348;DHT22;8791;50.876;4.342;2022-08-19T05:16:28;18.60;99.90
17348;DHT22;8791;50.876;4.342;2022-08-19T05:18:55;18.60;99.90
17348;DHT22;8791;50.876;4.342;2022-08-19T05:21:42;18.60;99.90
17348;DHT22;8791;50.876;4.342;2022-08-19T05:24:27;18.60;99.90
17348;DHT22;8791;50.876;4.342;2022-08-19T05:26:55;18.60;99.90
17348;DHT22;8791;50.876;4.342;2022-08-19T05:29:25;18.60;99.90
17348;DHT22;8791;50.876;4.342;2022-08-19T05:31:54;18.80;99.90
17348;DHT22;8791;50.876;4.342;2022-08-19T05:34:26;19.00;99.90
17348;DHT22;8791;50.876;4.342;2022-08-19T05:36:57;19.00;99.90
17348;DHT22;8791;50.876;4.342;2022-08-19T05:39:26;19.00;99.90
17348;DHT22;8791;50.876;4.342;2022-08-19T05:41:56;18.90;99.90
17348;DHT22;8791;50.876;4.342;2022-08-19T05:44:27;18.90;99.90
17348;DHT22;8791;50.876;4.342;2022-08-19T05:46:57;19.00;99.90
17348;DHT22;8791;50.876;4.342;2022-08-19T05:49:25;19.10;99.90
17348;DHT22;8791;50.876;4.342;2022-08-19T05:51:54;19.20;99.90
17348;DHT22;8791;50.876;4.342;2022-08-19T05:54:22;19.30;99.90
17348;DHT22;8791;50.876;4.342;2022-08-19T05:56:51;19.40;99.90
17348;DHT22;8791;50.876;4.342;2022-08-19T05:59:19;19.40;99.90
17348;DHT22;8791;50.876;4.342;2022-08-19T06:01:49;19.40;99.90
17348;DHT22;8791;50.876;4.342;2022-08-19T06:04:17;19.40;99.90
17348;DHT22;8791;50.876;4.342;2022-08-19T06:06:45;19.50;99.90
17348;DHT22;8791;50.876;4.342;2022-08-19T06:09:14;19.50;99.90
17348;DHT22;8791;50.876;4.342;2022-08-19T06:11:45;19.70;99.90
17348;DHT22;8791;50.876;4.342;2022-08-19T06:14:14;19.60;99.90
17348;DHT22;8791;50.876;4.342;2022-08-19T06:16:42;19.70;99.90
17348;DHT22;8791;50.876;4.342;2022-08-19T06:19:10;19.80;99.90
17348;DHT22;8791;50.876;4.342;2022-08-19T06:21:39;19.80;99.90
17348;DHT22;8791;50.876;4.342;2022-08-19T06:24:12;19.90;99.90
17348;DHT22;8791;50.876;4.342;2022-08-19T06:26:51;19.90;99.90
17348;DHT22;8791;50.876;4.342;2022-08-19T06:29:27;19.70;99.90
17348;DHT22;8791;50.876;4.342;2022-08-19T06:32:02;19.80;99.90
17348;DHT22;8791;50.876;4.342;2022-08-19T06:34:37;19.90;99.90
17348;DHT22;8791;50.876;4.342;2022-08-19T06:37:23;20.00;99.90
17348;DHT22;8791;50.876;4.342;2022-08-19T06:39:53;20.10;99.90
17348;DHT22;8791;50.876;4.342;2022-08-19T06:42:24;20.20;99.90
17348;DHT22;8791;50.876;4.342;2022-08-19T06:47:43;20.10;99.90
17348;DHT22;8791;50.876;4.342;2022-08-19T06:50:11;20.30;99.90
17348;DHT22;8791;50.876;4.342;2022-08-19T06:52:41;20.40;99.90
17348;DHT22;8791;50.876;4.342;2022-08-19T06:55:08;20.60;99.90
17348;DHT22;8791;50.876;4.342;2022-08-19T06:57:54;20.50;99.90
17348;DHT22;8791;50.876;4.342;2022-08-19T07:00:56;20.60;99.90
17348;DHT22;8791;50.876;4.342;2022-08-19T07:03:29;20.60;99.90
17348;DHT22;8791;50.876;4.342;2022-08-19T07:06:02;20.70;99.90
17348;DHT22;8791;50.876;4.342;2022-08-19T07:08:48;20.90;99.90
17348;DHT22;8791;50.876;4.342;2022-08-19T07:11:17;20.90;99.90
17348;DHT22;8791;50.876;4.342;2022-08-19T07:13:46;20.80;99.90
17348;DHT22;8791;50.876;4.342;2022-08-19T07:16:18;20.80;99.90
17348;DHT22;8791;50.876;4.342;2022-08-19T07:18:46;20.70;99.90
17348;DHT22;8791;50.876;4.342;2022-08-19T07:21:16;21.00;99.90
17348;DHT22;8791;50.876;4.342;2022-08-19T07:23:45;21.10;99.90
17348;DHT22;8791;50.876;4.342;2022-08-19T07:26:14;21.10;99.90
17348;DHT22;8791;50.876;4.342;2022-08-19T07:28:41;21.30;99.90
17348;DHT22;8791;50.876;4.342;2022-08-19T07:31:12;21.50;99.90
17348;DHT22;8791;50.876;4.342;2022-08-19T07:33:40;21.70;99.90
17348;DHT22;8791;50.876;4.342;2022-08-19T07:36:10;21.80;99.90
17348;DHT22;8791;50.876;4.342;2022-08-19T07:38:39;22.00;99.90
17348;DHT22;8791;50.876;4.342;2022-08-19T07:41:06;22.10;99.90
17348;DHT22;8791;50.876;4.342;2022-08-19T07:43:33;22.00;99.90
17348;DHT22;8791;50.876;4.342;2022-08-19T07:46:00;21.90;99.90
17348;DHT22;8791;50.876;4.342;2022-08-19T07:48:28;21.80;99.90
17348;DHT22;8791;50.876;4.342;2022-08-19T07:51:00;22.10;99.90
17348;DHT22;8791;50.876;4.342;2022-08-19T07:53:28;22.30;99.90
17348;DHT22;8791;50.876;4.342;2022-08-19T07:55:56;22.50;99.90
17348;DHT22;8791;50.876;4.342;2022-08-19T07:58:25;22.70;99.90
17348;DHT22;8791;50.876;4.342;2022-08-19T08:00:52;22.90;99.90
17348;DHT22;8791;50.876;4.342;2022-08-19T08:03:21;22.60;99.90
17348;DHT22;8791;50.876;4.342;2022-08-19T08:06:10;22.50;99.90
17348;DHT22;8791;50.876;4.342;2022-08-19T08:08:55;22.40;99.90
17348;DHT22;8791;50.876;4.342;2022-08-19T08:11:48;22.50;99.90
17348;DHT22;8791;50.876;4.342;2022-08-19T08:14:17;22.70;99.90
17348;DHT22;8791;50.876;4.342;2022-08-19T08:16:45;23.00;99.90
17348;DHT22;8791;50.876;4.342;2022-08-19T08:19:13;23.10;99.90
17348;DHT22;8791;50.876;4.342;2022-08-19T08:21:42;23.10;99.90
17348;DHT22;8791;50.876;4.342;2022-08-19T08:24:10;22.70;99.90
17348;DHT22;8791;50.876;4.342;2022-08-19T08:26:37;22.80;99.90
17348;DHT22;8791;50.876;4.342;2022-08-19T08:29:05;22.80;99.90
17348;DHT22;8791;50.876;4.342;2022-08-19T08:31:33;22.90;99.90
17348;DHT22;8791;50.876;4.342;2022-08-19T08:34:00;22.80;99.90
17348;DHT22;8791;50.876;4.342;2022-08-19T08:36:28;22.70;99.90
17348;DHT22;8791;50.876;4.342;2022-08-19T08:39:00;22.80;99.90
17348;DHT22;8791;50.876;4.342;2022-08-19T08:41:33;22.80;99.90
17348;DHT22;8791;50.876;4.342;2022-08-19T08:44:03;22.90;99.90
17348;DHT22;8791;50.876;4.342;2022-08-19T08:46:36;22.80;99.90
17348;DHT22;8791;50.876;4.342;2022-08-19T08:49:11;22.90;99.90
17348;DHT22;8791;50.876;4.342;2022-08-19T08:51:45;22.50;99.90
17348;DHT22;8791;50.876;4.342;2022-08-19T08:54:19;22.50;99.90
17348;DHT22;8791;50.876;4.342;2022-08-19T08:56:47;22.60;99.90
17348;DHT22;8791;50.876;4.342;2022-08-19T08:59:20;22.70;99.90
17348;DHT22;8791;50.876;4.342;2022-08-19T09:01:48;22.90;99.90
17348;DHT22;8791;50.876;4.342;2022-08-19T09:04:16;22.90;99.90
17348;DHT22;8791;50.876;4.342;2022-08-19T09:06:49;22.90;99.90
17348;DHT22;8791;50.876;4.342;2022-08-19T09:09:25;23.10;99.90
17348;DHT22;8791;50.876;4.342;2022-08-19T09:12:03;23.10;99.90
17348;DHT22;8791;50.876;4.342;2022-08-19T09:14:41;23.10;99.90
17348;DHT22;8791;50.876;4.342;2022-08-19T09:17:11;23.10;99.90
17348;DHT22;8791;50.876;4.342;2022-08-19T09:19:49;23.00;99.90
17348;DHT22;8791;50.876;4.342;2022-08-19T09:22:17;23.10;99.90
17348;DHT22;8791;50.876;4.342;2022-08-19T09:24:48;23.20;99.90
17348;DHT22;8791;50.876;4.342;2022-08-19T09:27:16;23.30;99.90
17348;DHT22;8791;50.876;4.342;2022-08-19T09:29:43;23.30;99.90
17348;DHT22;8791;50.876;4.342;2022-08-19T09:32:10;23.40;99.90
17348;DHT22;8791;50.876;4.342;2022-08-19T09:34:37;23.30;99.90
17348;DHT22;8791;50.876;4.342;2022-08-19T09:37:04;23.30;99.90
17348;DHT22;8791;50.876;4.342;2022-08-19T09:39:34;23.40;99.90
17348;DHT22;8791;50.876;4.342;2022-08-19T09:42:03;23.60;99.90
17348;DHT22;8791;50.876;4.342;2022-08-19T09:44:30;23.60;99.90
17348;DHT22;8791;50.876;4.342;2022-08-19T09:46:59;23.30;99.90
17348;DHT22;8791;50.876;4.342;2022-08-19T09:49:26;23.50;99.90
17348;DHT22;8791;50.876;4.342;2022-08-19T09:51:53;23.60;99.90
17348;DHT22;8791;50.876;4.342;2022-08-19T09:54:21;23.50;99.90
17348;DHT22;8791;50.876;4.342;2022-08-19T09:56:48;23.50;99.90
17348;DHT22;8791;50.876;4.342;2022-08-19T09:59:17;23.60;99.90
17348;DHT22;8791;50.876;4.342;2022-08-19T10:01:44;23.70;99.90
17348;DHT22;8791;50.876;4.342;2022-08-19T10:04:11;23.90;99.90
17348;DHT22;8791;50.876;4.342;2022-08-19T10:06:39;24.00;99.90
17348;DHT22;8791;50.876;4.342;2022-08-19T10:09:08;23.90;99.90
17348;DHT22;8791;50.876;4.342;2022-08-19T10:11:39;24.00;99.90
17348;DHT22;8791;50.876;4.342;2022-08-19T10:14:07;23.80;99.90
17348;DHT22;8791;50.876;4.342;2022-08-19T10:16:36;23.80;99.90
17348;DHT22;8791;50.876;4.342;2022-08-19T10:19:04;23.60;99.90
17348;DHT22;8791;50.876;4.342;2022-08-19T10:21:33;23.70;99.90
17348;DHT22;8791;50.876;4.342;2022-08-19T10:24:03;23.80;99.90
17348;DHT22;8791;50.876;4.342;2022-08-19T10:26:35;23.90;99.90
17348;DHT22;8791;50.876;4.342;2022-08-19T10:29:04;23.90;99.90
17348;DHT22;8791;50.876;4.342;2022-08-19T10:31:33;24.00;99.90
17348;DHT22;8791;50.876;4.342;2022-08-19T10:34:01;23.90;99.90
17348;DHT22;8791;50.876;4.342;2022-08-19T10:36:31;23.90;99.90
17348;DHT22;8791;50.876;4.342;2022-08-19T10:39:00;23.80;99.90
17348;DHT22;8791;50.876;4.342;2022-08-19T10:41:29;23.60;99.90
17348;DHT22;8791;50.876;4.342;2022-08-19T10:43:58;23.40;99.90
17348;DHT22;8791;50.876;4.342;2022-08-19T10:46:26;23.40;99.90
17348;DHT22;8791;50.876;4.342;2022-08-19T10:48:54;23.60;99.90
17348;DHT22;8791;50.876;4.342;2022-08-19T10:51:22;23.70;99.90
17348;DHT22;8791;50.876;4.342;2022-08-19T10:54:06;23.90;99.90
17348;DHT22;8791;50.876;4.342;2022-08-19T10:56:34;23.90;99.90
17348;DHT22;8791;50.876;4.342;2022-08-19T10:59:20;24.10;99.90
17348;DHT22;8791;50.876;4.342;2022-08-19T11:01:48;23.80;99.90
17348;DHT22;8791;50.876;4.342;2022-08-19T11:04:16;23.90;99.90
17348;DHT22;8791;50.876;4.342;2022-08-19T11:06:45;23.90;99.90
17348;DHT22;8791;50.876;4.342;2022-08-19T11:09:13;23.90;99.90
17348;DHT22;8791;50.876;4.342;2022-08-19T11:11:40;23.80;99.90
17348;DHT22;8791;50.876;4.342;2022-08-19T11:14:09;24.10;99.90
17348;DHT22;8791;50.876;4.342;2022-08-19T11:16:36;24.10;99.90
17348;DHT22;8791;50.876;4.342;2022-08-19T11:19:05;24.40;99.90
17348;DHT22;8791;50.876;4.342;2022-08-19T11:21:34;24.60;99.90
17348;DHT22;8791;50.876;4.342;2022-08-19T11:24:05;24.70;99.90
17348;DHT22;8791;50.876;4.342;2022-08-19T11:26:33;24.60;99.90
17348;DHT22;8791;50.876;4.342;2022-08-19T11:29:01;24.60;99.90
17348;DHT22;8791;50.876;4.342;2022-08-19T11:31:31;24.60;99.90
17348;DHT22;8791;50.876;4.342;2022-08-19T11:34:00;24.40;99.90
17348;DHT22;8791;50.876;4.342;2022-08-19T11:36:27;24.50;99.90
17348;DHT22;8791;50.876;4.342;2022-08-19T11:38:54;24.30;99.90
17348;DHT22;8791;50.876;4.342;2022-08-19T11:41:24;24.00;99.90
17348;DHT22;8791;50.876;4.342;2022-08-19T11:43:51;23.80;99.90
17348;DHT22;8791;50.876;4.342;2022-08-19T11:46:20;23.80;99.90
17348;DHT22;8791;50.876;4.342;2022-08-19T11:48:47;23.90;99.90
17348;DHT22;8791;50.876;4.342;2022-08-19T11:51:18;23.90;99.90
17348;DHT22;8791;50.876;4.342;2022-08-19T11:53:45;24.20;99.90
17348;DHT22;8791;50.876;4.342;2022-08-19T11:56:13;24.40;99.90
17348;DHT22;8791;50.876;4.342;2022-08-19T11:58:41;24.50;99.90
17348;DHT22;8791;50.876;4.342;2022-08-19T12:01:10;24.60;99.90
17348;DHT22;8791;50.876;4.342;2022-08-19T12:03:38;24.90;99.90
17348;DHT22;8791;50.876;4.342;2022-08-19T12:06:06;25.20;99.90
17348;DHT22;8791;50.876;4.342;2022-08-19T12:08:34;25.30;99.90
17348;DHT22;8791;50.876;4.342;2022-08-19T12:11:01;25.10;99.90
17348;DHT22;8791;50.876;4.342;2022-08-19T12:13:28;25.20;99.90
17348;DHT22;8791;50.876;4.342;2022-08-19T12:15:57;25.50;99.90
17348;DHT22;8791;50.876;4.342;2022-08-19T12:18:25;25.70;99.90
17348;DHT22;8791;50.876;4.342;2022-08-19T12:20:53;25.80;99.90
17348;DHT22;8791;50.876;4.342;2022-08-19T12:23:21;26.00;99.90
17348;DHT22;8791;50.876;4.342;2022-08-19T12:25:49;26.20;99.90
17348;DHT22;8791;50.876;4.342;2022-08-19T12:28:17;26.40;99.90
17348;DHT22;8791;50.876;4.342;2022-08-19T12:30:44;26.30;99.90
17348;DHT22;8791;50.876;4.342;2022-08-19T12:33:12;26.40;99.90
17348;DHT22;8791;50.876;4.342;2022-08-19T12:35:40;26.20;99.90
17348;DHT22;8791;50.876;4.342;2022-08-19T12:38:07;26.10;99.90
17348;DHT22;8791;50.876;4.342;2022-08-19T12:40:34;26.00;99.90
17348;DHT22;8791;50.876;4.342;2022-08-19T12:43:01;26.10;99.90
17348;DHT22;8791;50.876;4.342;2022-08-19T12:45:28;26.40;99.90
17348;DHT22;8791;50.876;4.342;2022-08-19T12:47:55;26.40;99.90
17348;DHT22;8791;50.876;4.342;2022-08-19T12:50:23;26.50;99.90
17348;DHT22;8791;50.876;4.342;2022-08-19T12:52:51;26.30;99.90
17348;DHT22;8791;50.876;4.342;2022-08-19T12:55:18;26.20;99.90
17348;DHT22;8791;50.876;4.342;2022-08-19T12:57:45;26.30;99.90
17348;DHT22;8791;50.876;4.342;2022-08-19T13:00:16;26.20;99.90
17348;DHT22;8791;50.876;4.342;2022-08-19T13:02:45;26.10;99.90
17348;DHT22;8791;50.876;4.342;2022-08-19T13:05:17;26.30;99.90
17348;DHT22;8791;50.876;4.342;2022-08-19T13:07:46;26.40;99.90
17348;DHT22;8791;50.876;4.342;2022-08-19T13:10:15;26.50;99.90
17348;DHT22;8791;50.876;4.342;2022-08-19T13:12:43;26.40;99.90
17348;DHT22;8791;50.876;4.342;2022-08-19T13:15:11;26.50;99.90
17348;DHT22;8791;50.876;4.342;2022-08-19T13:17:39;26.60;99.90
17348;DHT22;8791;50.876;4.342;2022-08-19T13:20:07;26.60;99.90
17348;DHT22;8791;50.876;4.342;2022-08-19T13:22:34;26.40;99.90
17348;DHT22;8791;50.876;4.342;2022-08-19T13:25:03;26.20;99.90
17348;DHT22;8791;50.876;4.342;2022-08-19T13:27:31;26.40;99.90
17348;DHT22;8791;50.876;4.342;2022-08-19T13:29:57;26.40;99.90
17348;DHT22;8791;50.876;4.342;2022-08-19T13:32:42;26.40;99.90
17348;DHT22;8791;50.876;4.342;2022-08-19T13:35:26;26.40;99.90
17348;DHT22;8791;50.876;4.342;2022-08-19T13:37:53;26.60;99.90
17348;DHT22;8791;50.876;4.342;2022-08-19T13:40:23;26.40;99.90
17348;DHT22;8791;50.876;4.342;2022-08-19T13:42:54;26.50;99.90
17348;DHT22;8791;50.876;4.342;2022-08-19T13:45:23;26.70;99.90
17348;DHT22;8791;50.876;4.342;2022-08-19T13:47:52;26.60;99.90
17348;DHT22;8791;50.876;4.342;2022-08-19T13:50:22;26.60;99.90
17348;DHT22;8791;50.876;4.342;2022-08-19T13:52:50;26.70;99.90
17348;DHT22;8791;50.876;4.342;2022-08-19T13:55:17;26.90;99.90
17348;DHT22;8791;50.876;4.342;2022-08-19T13:57:45;27.00;99.90
17348;DHT22;8791;50.876;4.342;2022-08-19T14:00:15;27.00;99.90
17348;DHT22;8791;50.876;4.342;2022-08-19T14:02:44;26.90;99.90
17348;DHT22;8791;50.876;4.342;2022-08-19T14:05:13;26.70;99.90
17348;DHT22;8791;50.876;4.342;2022-08-19T14:07:40;26.40;99.90
17348;DHT22;8791;50.876;4.342;2022-08-19T14:10:11;26.40;99.90
17348;DHT22;8791;50.876;4.342;2022-08-19T14:12:39;26.20;99.90
17348;DHT22;8791;50.876;4.342;2022-08-19T14:15:09;25.60;99.90
17348;DHT22;8791;50.876;4.342;2022-08-19T14:17:38;25.40;99.90
17348;DHT22;8791;50.876;4.342;2022-08-19T14:20:06;25.00;99.90
17348;DHT22;8791;50.876;4.342;2022-08-19T14:22:35;25.00;99.90
17348;DHT22;8791;50.876;4.342;2022-08-19T14:25:02;25.00;99.90
17348;DHT22;8791;50.876;4.342;2022-08-19T14:27:32;25.10;99.90
17348;DHT22;8791;50.876;4.342;2022-08-19T14:29:59;25.10;99.90
17348;DHT22;8791;50.876;4.342;2022-08-19T14:32:27;25.20;99.90
17348;DHT22;8791;50.876;4.342;2022-08-19T14:34:54;25.20;99.90
17348;DHT22;8791;50.876;4.342;2022-08-19T14:37:21;24.90;99.90
17348;DHT22;8791;50.876;4.342;2022-08-19T14:39:48;25.00;99.90
17348;DHT22;8791;50.876;4.342;2022-08-19T14:42:15;25.10;99.90
17348;DHT22;8791;50.876;4.342;2022-08-19T14:44:42;25.00;99.90
17348;DHT22;8791;50.876;4.342;2022-08-19T14:47:09;24.60;99.90
17348;DHT22;8791;50.876;4.342;2022-08-19T14:49:38;24.30;99.90
17348;DHT22;8791;50.876;4.342;2022-08-19T14:52:05;24.10;99.90
17348;DHT22;8791;50.876;4.342;2022-08-19T14:54:32;24.00;99.90
17348;DHT22;8791;50.876;4.342;2022-08-19T14:56:59;24.10;99.90
17348;DHT22;8791;50.876;4.342;2022-08-19T14:59:26;24.10;99.90
17348;DHT22;8791;50.876;4.342;2022-08-19T15:01:53;24.20;99.90
17348;DHT22;8791;50.876;4.342;2022-08-19T15:04:20;24.20;99.90
17348;DHT22;8791;50.876;4.342;2022-08-19T15:06:48;24.30;99.90
17348;DHT22;8791;50.876;4.342;2022-08-19T15:09:16;24.10;99.90
17348;DHT22;8791;50.876;4.342;2022-08-19T15:11:43;24.10;99.90
17348;DHT22;8791;50.876;4.342;2022-08-19T15:14:10;24.30;99.90
17348;DHT22;8791;50.876;4.342;2022-08-19T15:16:37;24.40;99.90
17348;DHT22;8791;50.876;4.342;2022-08-19T15:19:07;24.60;99.90
17348;DHT22;8791;50.876;4.342;2022-08-19T15:21:34;24.90;99.90
17348;DHT22;8791;50.876;4.342;2022-08-19T15:24:03;25.10;99.90
17348;DHT22;8791;50.876;4.342;2022-08-19T15:26:31;25.20;99.90
17348;DHT22;8791;50.876;4.342;2022-08-19T15:28:58;25.20;99.90
17348;DHT22;8791;50.876;4.342;2022-08-19T15:31:26;25.10;99.90
17348;DHT22;8791;50.876;4.342;2022-08-19T15:33:54;25.00;99.90
17348;DHT22;8791;50.876;4.342;2022-08-19T15:36:23;25.10;99.90
17348;DHT22;8791;50.876;4.342;2022-08-19T15:38:50;25.20;99.90
17348;DHT22;8791;50.876;4.342;2022-08-19T15:41:20;25.10;99.90
17348;DHT22;8791;50.876;4.342;2022-08-19T15:43:52;24.90;99.90
17348;DHT22;8791;50.876;4.342;2022-08-19T15:46:25;24.80;99.90
17348;DHT22;8791;50.876;4.342;2022-08-19T15:48:53;25.00;99.90
17348;DHT22;8791;50.876;4.342;2022-08-19T15:51:20;25.00;99.90
17348;DHT22;8791;50.876;4.342;2022-08-19T15:53:48;25.00;99.90
17348;DHT22;8791;50.876;4.342;2022-08-19T15:56:15;25.00;99.90
17348;DHT22;8791;50.876;4.342;2022-08-19T15:58:44;24.90;99.90
17348;DHT22;8791;50.876;4.342;2022-08-19T16:01:28;24.90;99.90